createdAt,value
2022-08-01T00:00:21.183Z,25.82
2022-08-01T00:04:22.865Z,25.81
2022-08-01T00:08:24.615Z,25.78
2022-08-01T00:12:26.308Z,25.76
2022-08-01T00:16:28.071Z,25.75
2022-08-01T00:20:29.664Z,25.71
2022-08-01T00:24:31.558Z,25.67
2022-08-01T00:28:33.192Z,25.64
2022-08-01T00:32:34.829Z,25.60
2022-08-01T00:36:36.413Z,25.54
2022-08-01T00:40:38.167Z,25.46
2022-08-01T00:44:40.458Z,25.36
2022-08-01T00:48:42.218Z,25.27
2022-08-01T00:52:51.382Z,25.23
2022-08-01T00:56:54.234Z,25.22
2022-08-01T01:00:55.844Z,25.20
2022-08-01T01:04:58.472Z,25.12
2022-08-01T01:09:19.801Z,25.05
2022-08-01T01:13:27.462Z,25.05
2022-08-01T01:17:51.381Z,24.89
2022-08-01T01:22:09.700Z,24.90
2022-08-01T01:26:30.232Z,24.92
2022-08-01T01:30:34.050Z,24.87
2022-08-01T01:34:38.626Z,24.79
2022-08-01T01:38:45.111Z,24.67
2022-08-01T01:42:47.597Z,24.59
2022-08-01T01:46:52.962Z,24.55
2022-08-01T01:50:55.455Z,24.53
2022-08-01T01:54:58.276Z,24.52
2022-08-01T01:59:03.623Z,24.44
2022-08-01T02:03:08.537Z,24.42
2022-08-01T02:07:13.475Z,24.45
2022-08-01T02:11:21.729Z,24.45
2022-08-01T02:15:24.294Z,24.46
2022-08-01T02:19:26.226Z,24.37
2022-08-01T02:23:33.888Z,24.31
2022-08-01T02:27:42.766Z,24.31
2022-08-01T02:31:47.917Z,24.31
2022-08-01T02:36:29.097Z,24.33
2022-08-01T02:40:18.209Z,24.37
2022-08-01T02:44:26.138Z,24.39
2022-08-01T02:48:29.301Z,24.37
2022-08-01T02:52:33.742Z,24.37
2022-08-01T02:56:36.999Z,24.36
2022-08-01T03:00:41.446Z,24.30
2022-08-01T03:04:44.762Z,24.24
2022-08-01T03:08:49.643Z,24.23
2022-08-01T03:12:52.184Z,24.24
2022-08-01T03:16:55.994Z,24.15
2022-08-01T03:21:00.036Z,23.97
2022-08-01T03:25:04.109Z,24.00
2022-08-01T03:29:10.777Z,24.04
2022-08-01T03:33:14.415Z,24.02
2022-08-01T03:37:25.253Z,24.04
2022-08-01T03:41:32.357Z,24.05
2022-08-01T03:45:42.233Z,24.02
2022-08-01T03:49:45.875Z,23.94
2022-08-01T03:53:48.844Z,23.87
2022-08-01T03:57:51.601Z,23.78
2022-08-01T04:01:53.925Z,23.75
2022-08-01T04:05:55.731Z,23.75
2022-08-01T04:09:57.779Z,23.74
2022-08-01T04:13:59.405Z,23.63
2022-08-01T04:18:01.026Z,23.63
2022-08-01T04:22:03.978Z,23.63
2022-08-01T04:26:07.690Z,23.60
2022-08-01T04:30:10.461Z,23.63
2022-08-01T04:34:25.357Z,23.63
2022-08-01T04:38:28.784Z,23.67
2022-08-01T04:42:33.532Z,23.64
2022-08-01T04:46:37.780Z,23.68
2022-08-01T04:50:39.480Z,23.71
2022-08-01T04:54:41.315Z,23.82
2022-08-01T04:58:43.978Z,23.87
2022-08-01T05:02:45.910Z,23.81
2022-08-01T05:06:47.584Z,23.79
2022-08-01T05:10:49.223Z,23.87
2022-08-01T05:14:50.908Z,23.89
2022-08-01T05:18:53.070Z,23.94
2022-08-01T05:22:54.819Z,23.96
2022-08-01T05:26:57.205Z,23.89
2022-08-01T05:30:58.877Z,23.79
2022-08-01T05:35:00.857Z,23.75
2022-08-01T05:39:02.452Z,23.71
2022-08-01T05:43:04.065Z,23.63
2022-08-01T05:47:05.868Z,23.63
2022-08-01T05:51:07.425Z,23.59
2022-08-01T05:55:10.241Z,23.57
2022-08-01T05:59:11.818Z,23.57
2022-08-01T06:03:13.793Z,23.64
2022-08-01T06:07:15.402Z,23.77
2022-08-01T06:11:17.184Z,23.96
2022-08-01T06:15:18.990Z,24.24
2022-08-01T06:19:20.651Z,24.41
2022-08-01T06:23:32.334Z,24.29
2022-08-01T06:27:37.601Z,24.18
2022-08-01T06:31:39.198Z,24.09
2022-08-01T06:35:40.880Z,24.19
2022-08-01T06:39:43.150Z,24.39
2022-08-01T06:43:44.723Z,24.49
2022-08-01T06:47:48.830Z,24.52
2022-08-01T06:51:53.495Z,24.55
2022-08-01T06:55:55.045Z,24.60
2022-08-01T06:59:56.993Z,24.63
2022-08-01T07:03:58.729Z,24.60
2022-08-01T07:08:00.350Z,24.63
2022-08-01T07:12:01.919Z,24.66
2022-08-01T07:16:03.668Z,24.80
2022-08-01T07:20:06.888Z,24.90
2022-08-01T07:24:15.394Z,24.94
2022-08-01T07:28:17.099Z,25.07
2022-08-01T07:32:18.708Z,25.22
2022-08-01T07:36:20.385Z,25.24
2022-08-01T07:40:22.122Z,25.19
2022-08-01T07:44:23.723Z,25.08
2022-08-01T07:48:25.819Z,25.19
2022-08-01T07:52:28.009Z,25.31
2022-08-01T07:56:29.702Z,25.42
2022-08-01T08:00:31.341Z,25.60
2022-08-01T08:04:32.996Z,25.64
2022-08-01T08:08:35.625Z,25.64
2022-08-01T08:12:37.521Z,25.51
2022-08-01T08:16:39.383Z,25.56
2022-08-01T08:20:41.399Z,25.74
2022-08-01T08:24:45.612Z,25.89
2022-08-01T08:28:48.285Z,26.12
2022-08-01T08:32:49.941Z,26.21
2022-08-01T08:36:52.298Z,26.35
2022-08-01T08:40:54.312Z,26.42
2022-08-01T08:44:56.200Z,26.39
2022-08-01T08:48:58.112Z,26.44
2022-08-01T08:53:02.266Z,26.59
2022-08-01T08:57:08.505Z,26.66
2022-08-01T09:01:11.070Z,26.81
2022-08-01T09:05:17.566Z,27.13
2022-08-01T09:09:21.240Z,27.18
2022-08-01T09:13:23.042Z,27.33
2022-08-01T09:17:24.638Z,27.45
2022-08-01T09:21:26.762Z,27.59
2022-08-01T09:25:36.746Z,27.78
2022-08-01T09:29:49.887Z,27.81
2022-08-01T09:34:04.909Z,27.77
2022-08-01T09:38:15.200Z,27.81
2022-08-01T09:42:28.841Z,27.93
2022-08-01T09:46:31.203Z,27.86
2022-08-01T09:50:41.177Z,27.93
2022-08-01T09:54:44.403Z,28.03
2022-08-01T09:58:58.320Z,28.17
2022-08-01T10:03:19.851Z,28.23
2022-08-01T10:07:27.922Z,28.28
2022-08-01T10:11:45.470Z,28.50
2022-08-01T10:15:47.245Z,28.61
2022-08-01T10:19:51.433Z,29.02
2022-08-01T10:23:59.897Z,29.14
2022-08-01T10:28:18.127Z,29.15
2022-08-01T10:32:23.573Z,29.12
2022-08-01T10:36:27.333Z,28.87
2022-08-01T10:40:31.905Z,28.88
2022-08-01T10:44:34.367Z,28.76
2022-08-01T10:49:16.306Z,28.92
2022-08-01T10:53:30.828Z,29.08
2022-08-01T10:57:52.441Z,29.21
2022-08-01T11:01:59.468Z,29.08
2022-08-01T11:06:01.915Z,29.15
2022-08-01T11:10:14.672Z,29.27
2022-08-01T11:14:16.761Z,29.54
2022-08-01T11:18:53.407Z,29.70
2022-08-01T11:23:07.136Z,29.94
2022-08-01T11:27:24.044Z,29.89
2022-08-01T11:31:27.367Z,30.04
2022-08-01T11:35:29.265Z,30.13
2022-08-01T11:39:35.452Z,30.04
2022-08-01T11:44:06.516Z,30.29
2022-08-01T11:48:19.478Z,30.56
2022-08-01T11:52:33.381Z,30.60
2022-08-01T11:56:40.222Z,30.68
2022-08-01T12:00:55.524Z,30.91
2022-08-01T12:05:01.992Z,31.28
2022-08-01T12:09:24.467Z,31.74
2022-08-01T12:13:26.192Z,31.95
2022-08-01T12:17:33.388Z,32.19
2022-08-01T12:21:34.999Z,31.98
2022-08-01T12:25:38.057Z,32.19
2022-08-01T12:29:42.257Z,32.12
2022-08-01T12:33:43.995Z,31.72
2022-08-01T12:37:50.047Z,31.38
2022-08-01T12:41:51.767Z,31.38
2022-08-01T12:45:54.493Z,31.34
2022-08-01T12:49:59.340Z,31.45
2022-08-01T12:54:00.984Z,31.35
2022-08-01T12:58:11.486Z,31.13
2022-08-01T13:02:17.337Z,30.98
2022-08-01T13:06:18.995Z,31.10
2022-08-01T13:10:47.577Z,31.19
2022-08-01T13:14:49.248Z,31.19
2022-08-01T13:18:53.015Z,31.05
2022-08-01T13:22:55.420Z,31.22
2022-08-01T13:27:00.877Z,31.22
2022-08-01T13:31:07.999Z,31.37
2022-08-01T13:35:11.227Z,31.35
2022-08-01T13:39:31.164Z,31.35
2022-08-01T13:43:58.422Z,31.57
2022-08-01T13:48:12.297Z,31.56
2022-08-01T13:52:17.655Z,31.53
2022-08-01T13:56:20.869Z,31.46
2022-08-01T14:00:22.558Z,31.52
2022-08-01T14:04:24.318Z,31.74
2022-08-01T14:08:26.094Z,31.84
2022-08-01T14:12:27.715Z,31.94
2022-08-01T14:16:29.352Z,32.03
2022-08-01T14:20:30.995Z,32.22
2022-08-01T14:24:32.667Z,32.09
2022-08-01T14:28:35.156Z,31.87
2022-08-01T14:32:36.880Z,31.72
2022-08-01T14:36:38.975Z,31.59
2022-08-01T14:40:41.591Z,31.64
2022-08-01T14:44:44.875Z,31.98
2022-08-01T14:48:51.718Z,31.92
2022-08-01T14:52:54.023Z,31.78
2022-08-01T14:56:55.610Z,31.31
2022-08-01T15:00:59.250Z,31.28
2022-08-01T15:05:01.124Z,31.10
2022-08-01T15:09:08.256Z,30.90
2022-08-01T15:13:11.165Z,30.72
2022-08-01T15:17:12.764Z,30.66
2022-08-01T15:21:24.867Z,30.86
2022-08-01T15:25:40.824Z,31.05
2022-08-01T15:29:43.799Z,31.20
2022-08-01T15:33:45.430Z,31.10
2022-08-01T15:37:47.042Z,31.04
2022-08-01T15:41:48.734Z,30.78
2022-08-01T15:45:50.350Z,30.64
2022-08-01T15:49:52.714Z,30.56
2022-08-01T15:53:54.424Z,30.37
2022-08-01T15:57:56.032Z,30.44
2022-08-01T16:01:57.691Z,30.32
2022-08-01T16:06:00.253Z,30.28
2022-08-01T16:10:01.870Z,30.15
2022-08-01T16:14:03.588Z,30.10
2022-08-01T16:18:06.413Z,30.03
2022-08-01T16:22:08.488Z,29.94
2022-08-01T16:26:11.856Z,29.95
2022-08-01T16:30:30.967Z,30.06
2022-08-01T16:34:33.895Z,29.99
2022-08-01T16:38:37.303Z,29.76
2022-08-01T16:42:38.878Z,29.60
2022-08-01T16:46:40.485Z,29.52
2022-08-01T16:50:42.844Z,29.44
2022-08-01T16:54:44.751Z,29.33
2022-08-01T16:58:46.375Z,29.21
2022-08-01T17:02:48.112Z,29.18
2022-08-01T17:06:52.217Z,29.18
2022-08-01T17:10:53.922Z,29.27
2022-08-01T17:14:55.773Z,29.33
2022-08-01T17:18:57.507Z,29.25
2022-08-01T17:22:59.146Z,29.15
2022-08-01T17:27:02.323Z,29.11
2022-08-01T17:31:04.015Z,29.02
2022-08-01T17:35:12.392Z,28.91
2022-08-01T17:39:14.165Z,28.87
2022-08-01T17:43:15.735Z,28.87
2022-08-01T17:47:40.899Z,28.83
2022-08-01T17:51:38.980Z,28.76
2022-08-01T17:55:53.285Z,28.64
2022-08-01T17:59:59.040Z,28.57
2022-08-01T18:04:00.687Z,28.48
2022-08-01T18:08:02.881Z,28.39
2022-08-01T18:12:04.902Z,28.30
2022-08-01T18:16:12.852Z,28.24
2022-08-01T18:20:14.728Z,28.20
2022-08-01T18:24:17.429Z,28.14
2022-08-01T18:28:25.770Z,28.11
2022-08-01T18:32:32.620Z,28.03
2022-08-01T18:36:34.495Z,28.05
2022-08-01T18:40:36.226Z,27.98
2022-08-01T18:44:37.894Z,27.84
2022-08-01T18:48:39.509Z,27.78
2022-08-01T18:52:42.589Z,27.65
2022-08-01T18:56:45.178Z,27.53
2022-08-01T19:00:46.880Z,27.42
2022-08-01T19:04:48.511Z,27.31
2022-08-01T19:08:52.112Z,27.21
2022-08-01T19:12:53.721Z,27.11
2022-08-01T19:16:56.429Z,27.08
2022-08-01T19:20:58.064Z,27.06
2022-08-01T19:24:59.672Z,27.09
2022-08-01T19:29:05.393Z,27.06
2022-08-01T19:33:07.146Z,27.06
2022-08-01T19:37:09.313Z,26.98
2022-08-01T19:41:13.751Z,26.96
2022-08-01T19:45:15.506Z,26.94
2022-08-01T19:49:19.481Z,26.94
2022-08-01T19:53:24.351Z,26.88
2022-08-01T19:57:28.521Z,26.83
2022-08-01T20:01:49.044Z,26.68
2022-08-01T20:05:51.230Z,26.61
2022-08-01T20:09:54.296Z,26.51
2022-08-01T20:13:57.215Z,26.44
2022-08-01T20:17:59.348Z,26.36
2022-08-01T20:22:05.868Z,26.34
2022-08-01T20:26:09.091Z,26.28
2022-08-01T20:30:11.791Z,26.28
2022-08-01T20:34:22.807Z,26.29
2022-08-01T20:38:27.678Z,26.27
2022-08-01T20:42:31.357Z,26.23
2022-08-01T20:46:33.694Z,26.16
2022-08-01T20:50:55.651Z,26.11
2022-08-01T20:54:57.260Z,26.03
2022-08-01T20:59:39.906Z,25.93
2022-08-01T21:04:06.030Z,25.94
2022-08-01T21:08:16.217Z,25.86
2022-08-01T21:12:27.995Z,25.81
2022-08-01T21:16:33.741Z,25.71
2022-08-01T21:20:52.746Z,25.63
2022-08-01T21:24:59.074Z,25.57
2022-08-01T21:29:04.981Z,25.54
2022-08-01T21:33:10.794Z,25.45
2022-08-01T21:37:16.081Z,25.38
2022-08-01T21:41:18.648Z,25.34
2022-08-01T21:45:57.905Z,25.31
2022-08-01T21:50:02.542Z,25.22
2022-08-01T21:54:25.363Z,25.14
2022-08-01T21:58:51.782Z,25.11
2022-08-01T22:03:17.972Z,25.08
2022-08-01T22:07:22.181Z,24.99
2022-08-01T22:11:28.120Z,25.02
2022-08-01T22:15:45.187Z,24.94
2022-08-01T22:19:50.652Z,24.92
2022-08-01T22:23:55.171Z,24.90
2022-08-01T22:28:08.060Z,24.86
2022-08-01T22:32:14.633Z,24.83
2022-08-01T22:36:17.159Z,24.82
2022-08-01T22:40:18.779Z,24.77
2022-08-01T22:44:30.128Z,24.67
2022-08-01T22:48:34.751Z,24.61
2022-08-01T22:52:48.454Z,24.59
2022-08-01T22:56:55.631Z,24.60
2022-08-01T23:01:01.381Z,24.61
2022-08-01T23:05:06.193Z,24.61
2022-08-01T23:09:09.464Z,24.59
2022-08-01T23:13:11.800Z,24.52
2022-08-01T23:17:26.725Z,24.46
2022-08-01T23:21:32.086Z,24.39
2022-08-01T23:25:34.204Z,24.36
2022-08-01T23:29:35.815Z,24.23
2022-08-01T23:33:37.558Z,24.16
2022-08-01T23:37:39.277Z,24.05
2022-08-01T23:41:56.138Z,23.97
2022-08-01T23:46:04.143Z,23.87
2022-08-01T23:50:07.827Z,23.77
2022-08-01T23:54:09.579Z,23.72
2022-08-01T23:58:12.497Z,23.67
